Time;durP1;ratioP1;P1;durP2;ratioP2;P2;SDS_P1;SDS_P2;PMS_P1;PMS_P2;Temp;Humidity;BMP_temperature;BMP_pressure;BME280_temperature;BME280_humidity;BME280_pressure;Samples;Min_cycle;Max_cycle;Signal;HPM_P1;HPM_P2
2021/12/19 00:10:09;;;;;;;7.47;3.15;;;7.90;99.90;;;;;;10084962;29;83619;-48
2021/12/19 00:15:10;;;;;;;6.85;2.88;;;7.90;99.90;;;;;;10087191;29;84088;-47
2021/12/19 00:20:11;;;;;;;5.55;2.92;;;7.90;99.90;;;;;;10091016;29;83606;-50
2021/12/19 00:25:11;;;;;;;8.90;3.55;;;7.80;99.90;;;;;;10090549;28;83927;-48
2021/12/19 00:30:12;;;;;;;7.95;3.40;;;7.80;99.90;;;;;;10091239;29;83749;-46
2021/12/19 00:35:13;;;;;;;7.75;3.45;;;7.80;99.90;;;;;;10090739;29;83674;-47
2021/12/19 00:40:14;;;;;;;8.15;3.90;;;7.80;99.90;;;;;;10090439;29;84128;-50
2021/12/19 00:45:27;;;;;;;8.20;3.97;;;7.80;99.90;;;;;;10073384;29;84425;-46
2021/12/19 00:50:29;;;;;;;11.32;4.72;;;7.90;99.90;;;;;;10089248;28;84152;-47
2021/12/19 00:55:30;;;;;;;7.75;3.97;;;7.90;99.90;;;;;;10089462;29;83852;-47
2021/12/19 01:00:33;;;;;;;7.10;3.20;;;7.90;99.90;;;;;;10090169;28;83922;-46
2021/12/19 01:05:38;;;;;;;9.48;3.25;;;7.70;99.90;;;;;;10089446;28;84545;-42
2021/12/19 01:10:42;;;;;;;4.20;1.88;;;7.60;99.90;;;;;;10089695;29;83733;-50
2021/12/19 01:15:43;;;;;;;4.45;2.17;;;7.40;99.90;;;;;;10089815;29;83794;-46
2021/12/19 01:20:44;;;;;;;4.45;2.17;;;7.40;99.90;;;;;;10089562;29;83815;-46
2021/12/19 01:25:44;;;;;;;3.65;1.60;;;7.40;99.90;;;;;;10088068;29;83707;-45
2021/12/19 01:30:46;;;;;;;3.53;1.70;;;7.40;99.90;;;;;;10089041;29;83731;-46
2021/12/19 01:35:46;;;;;;;4.32;1.20;;;7.40;99.90;;;;;;10088203;29;84017;-49
2021/12/19 01:40:47;;;;;;;3.83;1.27;;;7.40;99.90;;;;;;10089026;29;83740;-47
2021/12/19 01:45:48;;;;;;;5.50;1.70;;;7.40;99.90;;;;;;10088173;29;83617;-46
2021/12/19 01:50:50;;;;;;;3.83;1.40;;;7.40;99.90;;;;;;10088545;29;84529;-47
2021/12/19 01:55:51;;;;;;;4.10;1.83;;;7.30;99.90;;;;;;10087619;29;84070;-45
2021/12/19 02:00:54;;;;;;;2.80;1.13;;;7.10;99.90;;;;;;10088194;28;83707;-50
2021/12/19 02:05:55;;;;;;;1.63;0.40;;;6.90;99.90;;;;;;10087583;29;83760;-46
2021/12/19 02:10:56;;;;;;;0.82;0.40;;;6.80;99.90;;;;;;10088003;28;83791;-45
2021/12/19 02:15:57;;;;;;;1.42;0.80;;;6.70;99.90;;;;;;10084578;28;84141;-49
2021/12/19 02:20:58;;;;;;;1.45;0.63;;;6.80;99.90;;;;;;10077520;29;85059;-45
2021/12/19 02:25:59;;;;;;;1.08;0.65;;;6.90;99.90;;;;;;10086078;28;84131;-48
2021/12/19 02:31:00;;;;;;;3.30;0.77;;;6.80;99.90;;;;;;10087398;29;84049;-44
2021/12/19 02:36:18;;;;;;;1.58;0.93;;;6.80;99.90;;;;;;10067896;29;84179;-47
2021/12/19 02:51:41;;;;;;;1.63;0.90;;;6.80;99.90;;;;;;10086458;29;84118;-46
2021/12/19 02:56:42;;;;;;;4.25;1.33;;;6.80;99.90;;;;;;10086713;28;83777;-47
2021/12/19 03:01:43;;;;;;;2.33;1.15;;;6.90;99.90;;;;;;10053497;29;84808;-48
2021/12/19 03:06:46;;;;;;;1.52;0.75;;;6.90;99.90;;;;;;10086499;29;83995;-47
2021/12/19 03:12:21;;;;;;;2.67;0.80;;;6.90;99.90;;;;;;10087258;29;83796;-46
2021/12/19 03:22:27;;;;;;;4.55;1.33;;;6.80;99.90;;;;;;10069282;29;83965;-46
2021/12/19 03:27:27;;;;;;;1.95;0.88;;;6.80;99.90;;;;;;10068529;29;84137;-45
2021/12/19 03:32:28;;;;;;;2.42;1.30;;;6.80;99.90;;;;;;10086100;29;83671;-49
2021/12/19 03:37:29;;;;;;;3.30;1.45;;;6.90;99.90;;;;;;10068546;29;84260;-49
2021/12/19 03:42:30;;;;;;;2.05;0.90;;;6.90;99.90;;;;;;10086389;29;83667;-49
2021/12/19 03:47:30;;;;;;;2.05;0.70;;;6.90;99.90;;;;;;10086453;28;84212;-47
2021/12/19 03:52:31;;;;;;;3.35;1.08;;;6.90;99.90;;;;;;10092809;29;83724;-49
2021/12/19 03:57:32;;;;;;;1.75;0.93;;;6.90;99.90;;;;;;10074958;29;83989;-51
2021/12/19 04:02:32;;;;;;;2.20;1.10;;;7.00;99.90;;;;;;10092448;28;84347;-46
2021/12/19 04:07:33;;;;;;;2.47;1.08;;;6.90;99.90;;;;;;10091275;28;84330;-45
2021/12/19 04:12:34;;;;;;;2.28;1.02;;;6.90;99.90;;;;;;10074472;29;84218;-51
2021/12/19 04:17:35;;;;;;;1.95;0.95;;;6.90;99.90;;;;;;10091682;29;83201;-51
2021/12/19 04:22:36;;;;;;;1.67;1.10;;;7.00;99.90;;;;;;10091758;29;83247;-49
2021/12/19 04:27:37;;;;;;;3.17;1.27;;;7.00;99.90;;;;;;10090685;28;83662;-48
2021/12/19 04:32:45;;;;;;;1.77;1.13;;;6.90;99.90;;;;;;10091284;28;83881;-49
2021/12/19 04:54:04;;;;;;;1.85;0.90;;;7.00;99.90;;;;;;10090972;29;83990;-50
2021/12/19 05:14:49;;;;;;;2.05;0.80;;;7.00;99.90;;;;;;10089012;28;84040;-47
2021/12/19 05:20:08;;;;;;;2.05;0.80;;;7.00;99.90;;;;;;10089370;29;84112;-50
2021/12/19 05:25:14;;;;;;;0.85;0.70;;;7.00;99.90;;;;;;10107002;23;84206;-54
2021/12/19 05:30:16;;;;;;;1.73;1.08;;;7.00;99.90;;;;;;10169098;28;85533;-52
2021/12/19 05:35:29;;;;;;;2.13;0.80;;;7.00;99.90;;;;;;10169783;28;84100;-55
2021/12/19 05:45:49;;;;;;;2.58;1.10;;;7.00;99.90;;;;;;10145418;28;84079;-56
2021/12/19 05:50:50;;;;;;;1.20;0.65;;;7.00;99.90;;;;;;10150273;28;84062;-56
2021/12/19 05:55:51;;;;;;;2.22;1.00;;;7.00;99.90;;;;;;10152814;28;84181;-54
2021/12/19 06:00:51;;;;;;;2.03;0.90;;;7.00;99.90;;;;;;10147028;28;83525;-56
2021/12/19 06:05:52;;;;;;;2.10;1.00;;;7.00;99.90;;;;;;10135360;28;84123;-55
2021/12/19 06:10:53;;;;;;;1.80;1.08;;;7.00;99.90;;;;;;10142754;28;84149;-57
2021/12/19 06:15:56;;;;;;;1.42;0.90;;;7.00;99.90;;;;;;10138921;28;84100;-53
2021/12/19 06:20:56;;;;;;;2.10;0.90;;;7.00;99.90;;;;;;10126901;28;84471;-49
2021/12/19 06:25:57;;;;;;;1.95;0.95;;;7.10;99.90;;;;;;10123029;28;85227;-55
2021/12/19 06:30:58;;;;;;;1.88;0.77;;;7.10;99.90;;;;;;10123039;28;84014;-52
2021/12/19 06:35:58;;;;;;;1.67;1.08;;;7.10;99.90;;;;;;10126797;28;83244;-52
2021/12/19 06:40:59;;;;;;;2.13;1.17;;;7.10;99.90;;;;;;10115178;28;84118;-53
2021/12/19 06:46:00;;;;;;;1.75;0.82;;;7.00;99.90;;;;;;10124690;28;85910;-52
2021/12/19 06:51:00;;;;;;;2.53;1.00;;;7.00;99.90;;;;;;10124367;28;83929;-55
2021/12/19 06:56:01;;;;;;;2.83;0.82;;;7.10;99.90;;;;;;10125360;28;84205;-50
2021/12/19 07:01:02;;;;;;;2.33;1.15;;;7.20;99.90;;;;;;10123923;28;83758;-53
2021/12/19 07:06:02;;;;;;;1.92;0.90;;;7.20;99.90;;;;;;10122335;28;84371;-50
2021/12/19 07:11:03;;;;;;;2.10;0.85;;;7.10;99.90;;;;;;10121228;28;84001;-53
2021/12/19 07:16:06;;;;;;;0.80;0.60;;;7.10;99.90;;;;;;10123654;28;84085;-50
2021/12/19 07:21:07;;;;;;;1.20;0.75;;;7.00;99.90;;;;;;10124962;28;83496;-50
2021/12/19 07:26:08;;;;;;;1.52;0.45;;;6.90;99.90;;;;;;10123124;28;84010;-52
2021/12/19 07:31:09;;;;;;;3.53;0.50;;;6.90;99.90;;;;;;10125687;28;83226;-52
2021/12/19 07:36:09;;;;;;;1.48;0.50;;;6.90;99.90;;;;;;10125338;28;83312;-53
2021/12/19 07:41:10;;;;;;;0.73;0.40;;;6.90;99.90;;;;;;10125562;28;83225;-50
2021/12/19 07:46:11;;;;;;;1.30;0.40;;;6.80;99.90;;;;;;10124672;28;84163;-53
2021/12/19 07:51:11;;;;;;;3.47;0.65;;;6.80;99.90;;;;;;10126415;28;84372;-55
2021/12/19 07:56:12;;;;;;;0.73;0.38;;;6.80;99.90;;;;;;10124920;28;83256;-55
2021/12/19 08:01:13;;;;;;;2.58;0.40;;;6.80;99.90;;;;;;10125914;28;84124;-54
2021/12/19 08:06:13;;;;;;;0.47;0.30;;;6.80;99.90;;;;;;10125391;28;83252;-50
2021/12/19 08:16:33;;;;;;;0.80;0.60;;;6.80;99.90;;;;;;10125695;28;83738;-55
2021/12/19 08:21:34;;;;;;;0.93;0.30;;;6.80;99.90;;;;;;10125192;28;84168;-50
2021/12/19 08:26:35;;;;;;;1.10;0.43;;;6.80;99.90;;;;;;10124212;28;83638;-50
2021/12/19 08:31:35;;;;;;;1.23;0.57;;;6.80;99.90;;;;;;10124315;28;83609;-49
2021/12/19 08:36:37;;;;;;;1.05;0.60;;;6.80;99.90;;;;;;10126902;28;83720;-55
2021/12/19 08:41:38;;;;;;;2.95;0.70;;;7.00;99.90;;;;;;10130971;28;83706;-54
2021/12/19 08:46:41;;;;;;;1.30;0.40;;;6.90;99.90;;;;;;10130864;28;84016;-49
2021/12/19 08:51:41;;;;;;;1.40;0.40;;;7.00;99.90;;;;;;10131100;28;84443;-52
2021/12/19 08:56:42;;;;;;;0.80;0.52;;;7.10;99.90;;;;;;10131572;28;83213;-51
2021/12/19 09:01:43;;;;;;;0.93;0.30;;;7.10;99.90;;;;;;10130774;28;84185;-56
2021/12/19 09:06:43;;;;;;;1.30;0.65;;;7.20;99.90;;;;;;10130282;28;84415;-51
2021/12/19 09:11:44;;;;;;;0.85;0.30;;;7.30;99.90;;;;;;10130791;28;84030;-53
2021/12/19 09:16:44;;;;;;;0.60;0.28;;;7.30;99.90;;;;;;10129587;28;84026;-53
2021/12/19 09:21:45;;;;;;;0.30;0.10;;;7.50;99.90;;;;;;10130722;28;83260;-51
2021/12/19 09:26:45;;;;;;;0.50;0.20;;;7.50;99.90;;;;;;10128594;28;85052;-52
2021/12/19 09:31:46;;;;;;;0.40;0.10;;;7.70;99.90;;;;;;10129222;28;84032;-52
2021/12/19 09:36:47;;;;;;;1.17;0.30;;;7.50;99.90;;;;;;10128910;28;83452;-52
2021/12/19 09:41:53;;;;;;;0.75;0.30;;;7.40;99.90;;;;;;10129231;28;83338;-51
2021/12/19 09:46:54;;;;;;;0.47;0.40;;;7.40;99.90;;;;;;10127950;28;83357;-53
2021/12/19 09:51:56;;;;;;;2.15;0.30;;;7.40;99.90;;;;;;10128041;28;83325;-51
2021/12/19 09:56:56;;;;;;;0.63;0.35;;;7.40;99.90;;;;;;10128137;28;83377;-53
2021/12/19 10:01:57;;;;;;;1.08;0.52;;;7.40;99.90;;;;;;10128667;28;83340;-52
2021/12/19 10:07:07;;;;;;;0.85;0.40;;;7.40;99.90;;;;;;10128346;28;84336;-55
2021/12/19 10:12:35;;;;;;;0.60;0.40;;;7.50;99.90;;;;;;10143115;28;84135;-55
2021/12/19 10:17:35;;;;;;;1.13;0.52;;;7.40;99.90;;;;;;10127242;28;83381;-50
2021/12/19 10:22:41;;;;;;;1.25;0.73;;;7.40;99.90;;;;;;10127865;28;83758;-54
2021/12/19 10:27:44;;;;;;;2.42;0.98;;;7.30;99.90;;;;;;10127331;28;83268;-55
2021/12/19 10:32:58;;;;;;;4.72;1.00;;;7.30;99.90;;;;;;10129193;28;83347;-55
2021/12/19 10:38:01;;;;;;;6.00;1.33;;;7.30;99.90;;;;;;10128364;28;84033;-50
2021/12/19 10:43:04;;;;;;;3.25;1.48;;;7.40;99.90;;;;;;10127962;28;83982;-53
2021/12/19 10:48:13;;;;;;;1.95;1.38;;;7.40;99.90;;;;;;10127040;28;83335;-55
2021/12/19 10:53:15;;;;;;;7.70;1.88;;;7.40;99.90;;;;;;10127806;28;84188;-52
2021/12/19 10:58:31;;;;;;;6.05;1.65;;;7.30;99.90;;;;;;10140630;28;83379;-51
2021/12/19 11:03:44;;;;;;;4.57;1.60;;;7.40;99.90;;;;;;10127504;28;84395;-54
2021/12/19 11:08:45;;;;;;;4.35;1.73;;;7.40;99.90;;;;;;10126532;28;83346;-53
2021/12/19 11:13:46;;;;;;;3.88;1.85;;;7.50;99.90;;;;;;10126314;28;84146;-53
2021/12/19 11:18:48;;;;;;;4.45;1.42;;;7.50;99.90;;;;;;10125700;28;84107;-53
2021/12/19 11:23:49;;;;;;;4.20;1.70;;;7.50;99.90;;;;;;10124908;28;85033;-53
2021/12/19 11:28:50;;;;;;;3.75;1.70;;;7.50;99.90;;;;;;10196071;22;84307;-45
2021/12/19 11:34:08;;;;;;;4.63;1.77;;;7.50;99.90;;;;;;10206011;28;83784;-45
2021/12/19 11:39:09;;;;;;;5.72;1.58;;;7.60;99.90;;;;;;10205242;28;83655;-44
2021/12/19 11:44:39;;;;;;;2.47;1.17;;;7.70;99.90;;;;;;10205445;28;84258;-45
2021/12/19 11:49:39;;;;;;;6.63;1.92;;;7.70;99.90;;;;;;10204045;28;86125;-43
2021/12/19 11:54:40;;;;;;;3.58;1.60;;;7.60;99.90;;;;;;10205662;28;84310;-44
2021/12/19 11:59:40;;;;;;;3.28;1.33;;;7.60;99.90;;;;;;10204729;28;84259;-45
2021/12/19 12:04:41;;;;;;;8.23;1.42;;;7.70;99.90;;;;;;10204984;28;85381;-42
2021/12/19 12:09:55;;;;;;;3.42;1.33;;;7.70;99.90;;;;;;10203538;28;85360;-43
2021/12/19 12:15:02;;;;;;;6.75;1.55;;;7.70;99.90;;;;;;10210907;28;83706;-46
2021/12/19 12:20:19;;;;;;;4.38;1.90;;;7.80;99.90;;;;;;10210284;28;83856;-43
2021/12/19 12:25:30;;;;;;;2.85;1.35;;;7.70;99.90;;;;;;10210714;28;83695;-45
2021/12/19 12:30:37;;;;;;;2.50;1.45;;;7.70;99.90;;;;;;10211500;28;83668;-43
2021/12/19 12:35:40;;;;;;;1.63;1.10;;;7.80;99.90;;;;;;10208043;28;83632;-44
2021/12/19 12:40:59;;;;;;;2.33;1.58;;;7.90;99.90;;;;;;10208122;28;84038;-44
2021/12/19 12:46:01;;;;;;;5.53;1.40;;;7.80;99.90;;;;;;10208081;28;85032;-44
2021/12/19 12:51:18;;;;;;;3.42;1.42;;;7.80;99.90;;;;;;10207199;28;85391;-44
2021/12/19 12:56:32;;;;;;;1.45;0.75;;;7.90;99.90;;;;;;10208201;28;83789;-42
2021/12/19 13:01:49;;;;;;;3.83;1.55;;;7.80;99.90;;;;;;10208716;28;84294;-43
2021/12/19 13:07:11;;;;;;;3.50;0.90;;;7.80;99.90;;;;;;10208464;28;83775;-44
2021/12/19 13:12:20;;;;;;;3.28;1.23;;;7.80;99.90;;;;;;10208791;28;83736;-46
2021/12/19 13:17:29;;;;;;;1.65;0.75;;;7.80;99.90;;;;;;10207173;28;84221;-46
2021/12/19 13:22:39;;;;;;;1.08;0.60;;;7.80;99.90;;;;;;10207849;28;84147;-46
2021/12/19 13:27:43;;;;;;;4.85;1.25;;;7.80;99.90;;;;;;10207489;28;84223;-44
2021/12/19 13:32:46;;;;;;;1.90;1.30;;;7.80;99.90;;;;;;10207802;28;84166;-43
2021/12/19 13:38:02;;;;;;;2.15;1.20;;;7.70;99.90;;;;;;10207443;28;84228;-43
2021/12/19 13:43:10;;;;;;;2.85;0.88;;;7.70;99.90;;;;;;10206882;28;85981;-43
2021/12/19 13:48:22;;;;;;;3.22;0.95;;;7.70;99.90;;;;;;10206841;28;84283;-46
2021/12/19 13:53:25;;;;;;;2.47;0.90;;;7.70;99.90;;;;;;10207288;28;84016;-42
2021/12/19 13:58:32;;;;;;;3.55;1.52;;;7.70;99.90;;;;;;10204938;28;86031;-42
2021/12/19 14:03:36;;;;;;;2.47;1.30;;;7.70;99.90;;;;;;10207238;28;83889;-43
2021/12/19 14:08:38;;;;;;;3.75;1.20;;;7.70;99.90;;;;;;10206388;28;83623;-44
2021/12/19 14:13:41;;;;;;;2.05;1.10;;;7.70;99.90;;;;;;10206758;28;84014;-42
2021/12/19 14:18:45;;;;;;;2.05;1.00;;;7.70;99.90;;;;;;10204975;28;84083;-46
2021/12/19 14:23:46;;;;;;;2.63;1.13;;;7.70;99.90;;;;;;10188157;28;84113;-48
2021/12/19 14:28:49;;;;;;;2.45;1.02;;;7.70;99.90;;;;;;10205199;28;83613;-45
2021/12/19 14:33:50;;;;;;;2.13;0.80;;;7.80;99.90;;;;;;10205272;28;83636;-43
2021/12/19 14:39:02;;;;;;;1.83;0.98;;;7.80;99.90;;;;;;10203227;28;84205;-45
2021/12/19 14:44:03;;;;;;;4.20;1.23;;;7.80;99.90;;;;;;10198101;28;83942;-48
2021/12/19 14:49:11;;;;;;;3.33;0.90;;;7.80;99.90;;;;;;10204859;28;84107;-44
2021/12/19 14:54:12;;;;;;;4.30;0.98;;;7.80;99.90;;;;;;10213709;28;83708;-44
2021/12/19 14:59:17;;;;;;;5.20;1.17;;;7.80;99.90;;;;;;10220584;28;84703;-43
2021/12/19 15:04:19;;;;;;;2.72;1.13;;;7.70;99.90;;;;;;10216455;28;84140;-44
2021/12/19 15:09:20;;;;;;;4.68;1.60;;;7.70;99.90;;;;;;10212529;28;83960;-42
2021/12/19 15:14:20;;;;;;;4.03;1.50;;;7.70;99.90;;;;;;10206844;28;84014;-44
2021/12/19 15:19:21;;;;;;;2.70;1.10;;;7.70;99.90;;;;;;10207986;28;83980;-43
2021/12/19 15:24:22;;;;;;;6.45;1.55;;;7.70;99.90;;;;;;10182924;28;84014;-46
2021/12/19 15:29:22;;;;;;;2.72;1.23;;;7.80;99.90;;;;;;10230765;28;84072;-43
2021/12/19 15:34:23;;;;;;;2.72;1.40;;;7.80;99.90;;;;;;10245204;28;83692;-43
2021/12/19 15:39:24;;;;;;;5.93;1.70;;;7.80;99.90;;;;;;10244081;28;84141;-44
2021/12/19 15:44:24;;;;;;;5.22;1.90;;;7.80;99.90;;;;;;10240665;28;84120;-45
2021/12/19 15:49:25;;;;;;;4.05;1.85;;;7.80;99.90;;;;;;10181827;28;83702;-44
2021/12/19 15:54:29;;;;;;;5.10;1.20;;;7.80;99.90;;;;;;10185918;28;84077;-44
2021/12/19 15:59:31;;;;;;;5.43;1.20;;;7.70;99.90;;;;;;10190665;28;84149;-44
2021/12/19 16:04:32;;;;;;;6.15;1.20;;;7.70;99.90;;;;;;10195050;28;83756;-43
2021/12/19 16:09:33;;;;;;;3.60;1.40;;;7.70;99.90;;;;;;10179013;28;83928;-44
2021/12/19 16:14:35;;;;;;;6.45;1.48;;;7.70;99.90;;;;;;10193941;28;85144;-45
2021/12/19 16:19:36;;;;;;;3.25;1.20;;;7.70;99.90;;;;;;10193864;28;85241;-44
2021/12/19 16:24:37;;;;;;;8.75;1.60;;;7.70;99.90;;;;;;10183258;28;83596;-45
2021/12/19 16:29:37;;;;;;;5.57;1.60;;;7.80;99.90;;;;;;10186021;28;83601;-43
2021/12/19 16:34:38;;;;;;;3.13;1.75;;;7.80;99.90;;;;;;10183122;28;84423;-44
2021/12/19 16:39:40;;;;;;;4.70;1.67;;;7.80;99.90;;;;;;10175776;28;83723;-43
2021/12/19 16:44:41;;;;;;;6.68;1.70;;;7.80;99.90;;;;;;10184155;28;85031;-44
2021/12/19 16:49:42;;;;;;;4.85;2.03;;;7.70;99.90;;;;;;10173520;28;84502;-47
2021/12/19 16:54:44;;;;;;;5.50;1.65;;;7.70;99.90;;;;;;10168819;28;84120;-45
2021/12/19 16:59:45;;;;;;;2.60;1.55;;;7.70;99.90;;;;;;10206380;28;84004;-47
2021/12/19 17:04:46;;;;;;;6.45;2.15;;;7.70;99.90;;;;;;10212997;28;84283;-43
2021/12/19 17:09:47;;;;;;;5.38;2.13;;;7.80;99.90;;;;;;10222776;28;84078;-45
2021/12/19 17:14:49;;;;;;;4.88;1.85;;;7.90;99.90;;;;;;10237599;28;85140;-44
2021/12/19 17:19:51;;;;;;;7.03;2.10;;;7.90;99.90;;;;;;10232955;28;83846;-43
2021/12/19 17:24:51;;;;;;;3.85;1.80;;;7.90;99.90;;;;;;10206071;28;85274;-44
2021/12/19 17:29:52;;;;;;;5.82;1.83;;;7.90;99.90;;;;;;10223879;23;84310;-53
2021/12/19 17:34:53;;;;;;;3.97;1.42;;;7.90;99.90;;;;;;10223595;28;85330;-55
2021/12/19 17:40:01;;;;;;;5.50;1.98;;;7.80;99.90;;;;;;10223921;28;84137;-52
2021/12/19 17:45:03;;;;;;;4.43;1.77;;;7.80;99.90;;;;;;10250713;28;84018;-54
2021/12/19 17:50:04;;;;;;;7.88;1.65;;;7.80;99.90;;;;;;10232298;28;83431;-54
2021/12/19 17:55:05;;;;;;;5.65;1.90;;;7.80;99.90;;;;;;10208839;28;83515;-52
2021/12/19 18:00:09;;;;;;;6.60;1.98;;;7.90;99.90;;;;;;10211346;28;84681;-55
2021/12/19 18:05:15;;;;;;;8.68;1.58;;;7.80;99.90;;;;;;10208372;28;83817;-53
2021/12/19 18:10:18;;;;;;;5.47;2.20;;;7.90;99.90;;;;;;10215809;28;83624;-52
2021/12/19 18:15:20;;;;;;;5.45;2.08;;;7.90;99.90;;;;;;10203403;28;84341;-52
2021/12/19 18:20:23;;;;;;;6.25;2.00;;;8.00;99.90;;;;;;10194845;28;84471;-50
2021/12/19 18:25:24;;;;;;;9.40;1.65;;;8.00;99.90;;;;;;10200973;28;84845;-55
2021/12/19 18:30:26;;;;;;;2.25;1.30;;;7.90;99.90;;;;;;10177886;28;83427;-52
2021/12/19 18:35:30;;;;;;;6.65;1.88;;;7.90;99.90;;;;;;10175988;28;84056;-52
2021/12/19 18:40:34;;;;;;;3.80;1.25;;;7.90;99.90;;;;;;10205356;28;84668;-50
2021/12/19 18:46:00;;;;;;;1.38;0.80;;;7.90;99.90;;;;;;10175724;28;83941;-57
2021/12/19 18:51:21;;;;;;;4.15;1.20;;;8.00;99.90;;;;;;10182476;28;84273;-54
2021/12/19 18:56:22;;;;;;;3.80;1.50;;;8.00;99.90;;;;;;10182166;28;83454;-56
2021/12/19 19:01:35;;;;;;;1.92;1.17;;;7.90;99.90;;;;;;10196418;28;83895;-55
2021/12/19 19:06:37;;;;;;;5.25;1.70;;;7.90;99.90;;;;;;10217739;28;83663;-54
2021/12/19 19:11:38;;;;;;;4.72;1.50;;;7.90;99.90;;;;;;10210541;28;85261;-55
2021/12/19 19:16:40;;;;;;;4.15;1.52;;;7.90;99.90;;;;;;10207289;28;84138;-49
2021/12/19 19:21:43;;;;;;;4.53;1.63;;;7.90;99.90;;;;;;10210185;28;84496;-53
2021/12/19 19:26:46;;;;;;;3.33;1.15;;;7.90;99.90;;;;;;10205139;28;83435;-52
2021/12/19 19:31:48;;;;;;;7.03;1.77;;;7.90;99.90;;;;;;10204355;28;86656;-54
2021/12/19 19:36:53;;;;;;;10.27;1.70;;;7.90;99.90;;;;;;10205831;28;83353;-54
2021/12/19 19:52:37;;;;;;;6.32;1.73;;;7.90;99.90;;;;;;10200619;28;84228;-51
2021/12/19 19:57:38;;;;;;;7.60;1.35;;;7.90;99.90;;;;;;10201965;28;83544;-57
2021/12/19 20:02:39;;;;;;;5.57;1.85;;;7.90;99.90;;;;;;10204175;28;85289;-52
2021/12/19 20:07:40;;;;;;;3.30;1.00;;;7.90;99.90;;;;;;10198966;28;84157;-55
2021/12/19 20:12:40;;;;;;;2.95;1.42;;;7.90;99.90;;;;;;10204267;28;84431;-51
2021/12/19 20:17:43;;;;;;;4.32;1.63;;;8.00;99.90;;;;;;10218941;28;83772;-54
2021/12/19 20:22:46;;;;;;;1.65;1.17;;;8.00;99.90;;;;;;10231268;28;83362;-54
2021/12/19 20:27:47;;;;;;;5.68;1.05;;;8.00;99.90;;;;;;10244555;28;83416;-50
2021/12/19 20:32:52;;;;;;;2.25;0.88;;;8.00;99.90;;;;;;10213709;28;83725;-53
2021/12/19 20:37:57;;;;;;;1.63;0.98;;;8.00;99.90;;;;;;10211315;28;83220;-55
2021/12/19 20:42:58;;;;;;;3.97;1.10;;;8.00;99.90;;;;;;10211746;28;83402;-53
2021/12/19 20:48:02;;;;;;;3.85;0.80;;;7.90;99.90;;;;;;10211668;28;83515;-53
2021/12/19 20:53:04;;;;;;;3.10;0.98;;;7.90;99.90;;;;;;10212220;28;83177;-54
2021/12/19 20:58:05;;;;;;;5.93;0.90;;;7.90;99.90;;;;;;10209254;28;85330;-50
2021/12/19 21:03:05;;;;;;;3.58;1.30;;;7.90;99.90;;;;;;10208525;28;85595;-55
2021/12/19 21:08:06;;;;;;;4.65;0.85;;;7.90;99.90;;;;;;10210602;28;84168;-53
2021/12/19 21:13:10;;;;;;;5.22;1.23;;;7.90;99.90;;;;;;10210397;28;83337;-54
2021/12/19 21:23:30;;;;;;;1.27;0.88;;;7.90;99.90;;;;;;10209783;28;84311;-55
2021/12/19 21:28:31;;;;;;;8.40;1.42;;;7.90;99.90;;;;;;10209206;28;84487;-52
2021/12/19 21:33:33;;;;;;;10.82;1.02;;;7.90;99.90;;;;;;10209199;28;84209;-53
2021/12/19 21:38:49;;;;;;;6.63;1.00;;;7.80;99.90;;;;;;10208702;28;84118;-51
2021/12/19 21:43:51;;;;;;;3.80;1.23;;;7.80;99.90;;;;;;10208399;28;84213;-54
2021/12/19 21:48:52;;;;;;;3.20;0.98;;;7.90;99.90;;;;;;10208167;28;84141;-53
2021/12/19 21:53:53;;;;;;;5.00;1.13;;;7.90;99.90;;;;;;10208538;28;83237;-53
2021/12/19 21:58:54;;;;;;;5.68;1.42;;;7.90;99.90;;;;;;10207405;28;84381;-50
2021/12/19 22:03:54;;;;;;;4.88;1.50;;;7.90;99.90;;;;;;10207570;28;84218;-57
2021/12/19 22:08:58;;;;;;;5.97;0.85;;;7.80;99.90;;;;;;10207554;28;84141;-54
2021/12/19 22:19:03;;;;;;;3.78;1.02;;;7.80;99.90;;;;;;10207366;28;84136;-54
2021/12/19 22:24:05;;;;;;;4.70;1.23;;;7.80;99.90;;;;;;10207947;28;83228;-53
2021/12/19 22:29:06;;;;;;;9.98;1.75;;;7.80;99.90;;;;;;10206205;28;84008;-56
2021/12/19 22:34:06;;;;;;;11.55;1.73;;;7.70;99.90;;;;;;10207432;28;84316;-52
2021/12/19 22:39:07;;;;;;;8.80;1.85;;;7.60;99.90;;;;;;10207650;28;83309;-52
2021/12/19 22:44:08;;;;;;;7.25;1.10;;;7.50;99.90;;;;;;10206542;28;84123;-53
2021/12/19 22:49:09;;;;;;;4.25;1.33;;;7.50;99.90;;;;;;10204537;28;84359;-50
2021/12/19 22:54:10;;;;;;;8.98;1.05;;;7.50;99.90;;;;;;10205032;28;84399;-52
2021/12/19 22:59:10;;;;;;;6.50;1.00;;;7.50;99.90;;;;;;10205120;28;84171;-49
2021/12/19 23:04:11;;;;;;;3.15;1.10;;;7.50;99.90;;;;;;10205650;28;83661;-52
2021/12/19 23:09:12;;;;;;;6.72;1.10;;;7.60;99.90;;;;;;10205865;28;84118;-54
2021/12/19 23:14:17;;;;;;;9.73;1.50;;;7.50;99.90;;;;;;10205128;28;85154;-54
2021/12/19 23:19:18;;;;;;;7.25;1.35;;;7.50;99.90;;;;;;10207834;28;84123;-54
2021/12/19 23:24:18;;;;;;;10.52;2.08;;;7.60;99.90;;;;;;10207513;28;83600;-52
2021/12/19 23:29:19;;;;;;;5.88;1.10;;;7.60;99.90;;;;;;10227666;23;84061;-49
2021/12/19 23:34:20;;;;;;;5.80;1.10;;;7.60;99.90;;;;;;10206011;28;83745;-50
2021/12/19 23:39:50;;;;;;;7.13;1.67;;;7.60;99.90;;;;;;10203608;28;83813;-48
2021/12/19 23:50:11;;;;;;;12.43;1.48;;;7.70;99.90;;;;;;10206033;28;84050;-46
2021/12/19 23:55:12;;;;;;;10.20;1.42;;;7.60;99.90;;;;;;10205842;28;83768;-46
